createdAt,value
2022-11-26T00:02:15.578Z,7.21
2022-11-26T00:04:45.180Z,7.11
2022-11-26T00:07:14.814Z,7.10
2022-11-26T00:09:44.262Z,7.03
2022-11-26T00:12:20.956Z,7.01
2022-11-26T00:14:50.668Z,7.04
2022-11-26T00:17:20.054Z,6.97
2022-11-26T00:19:49.434Z,6.92
2022-11-26T00:22:22.225Z,6.89
2022-11-26T00:24:51.729Z,6.98
2022-11-26T00:27:23.971Z,6.96
2022-11-26T00:29:53.463Z,7.01
2022-11-26T00:32:23.490Z,7.06
2022-11-26T00:34:52.867Z,7.03
2022-11-26T00:37:22.804Z,7.01
2022-11-26T00:39:52.336Z,6.96
2022-11-26T00:42:24.334Z,6.96
2022-11-26T00:44:53.818Z,6.92
2022-11-26T00:47:23.215Z,6.88
2022-11-26T00:49:52.594Z,6.88
2022-11-26T00:52:25.536Z,6.88
2022-11-26T00:54:54.937Z,6.87
2022-11-26T00:57:27.271Z,6.85
2022-11-26T00:59:56.678Z,6.82
2022-11-26T01:02:26.060Z,6.80
2022-11-26T01:04:55.489Z,6.84
2022-11-26T01:07:24.931Z,6.99
2022-11-26T01:09:54.353Z,6.93
2022-11-26T01:12:23.695Z,6.84
2022-11-26T01:14:55.773Z,6.81
2022-11-26T01:17:25.227Z,6.85
2022-11-26T01:19:54.567Z,6.94
2022-11-26T01:22:25.401Z,6.99
2022-11-26T01:24:54.929Z,6.96
2022-11-26T01:27:24.403Z,6.94
2022-11-26T01:29:56.636Z,6.93
2022-11-26T01:32:29.428Z,6.93
2022-11-26T01:34:59.291Z,6.96
2022-11-26T01:37:28.753Z,6.87
2022-11-26T01:39:58.210Z,6.89
2022-11-26T01:42:28.008Z,6.86
2022-11-26T01:45:00.035Z,6.78
2022-11-26T01:47:30.244Z,6.75
2022-11-26T01:50:14.579Z,6.68
2022-11-26T01:52:43.902Z,6.63
2022-11-26T01:55:13.411Z,6.65
2022-11-26T01:57:42.744Z,6.70
2022-11-26T02:00:15.650Z,6.61
2022-11-26T02:02:46.863Z,6.61
2022-11-26T02:05:18.115Z,6.54
2022-11-26T02:07:47.704Z,6.54
2022-11-26T02:10:17.133Z,6.51
2022-11-26T02:12:46.557Z,6.47
2022-11-26T02:15:18.592Z,6.51
2022-11-26T02:17:48.527Z,6.53
2022-11-26T02:20:28.827Z,6.49
2022-11-26T02:23:12.366Z,6.46
2022-11-26T02:25:56.850Z,6.38
2022-11-26T02:28:30.943Z,6.50
2022-11-26T02:31:04.963Z,6.46
2022-11-26T02:33:36.418Z,6.33
2022-11-26T02:36:07.757Z,6.37
2022-11-26T02:38:38.323Z,6.34
2022-11-26T02:41:08.039Z,6.33
2022-11-26T02:43:37.439Z,6.28
2022-11-26T02:46:11.197Z,6.20
2022-11-26T02:48:42.150Z,6.11
2022-11-26T02:51:13.335Z,5.95
2022-11-26T02:53:42.941Z,5.85
2022-11-26T02:56:13.295Z,5.75
2022-11-26T02:58:42.786Z,5.87
2022-11-26T03:01:15.861Z,5.79
2022-11-26T03:03:46.518Z,5.66
2022-11-26T03:06:16.146Z,5.62
2022-11-26T03:08:46.191Z,5.57
2022-11-26T03:11:15.698Z,5.61
2022-11-26T03:13:45.144Z,5.52
2022-11-26T03:16:17.171Z,5.48
2022-11-26T03:18:46.540Z,5.42
2022-11-26T03:21:15.968Z,5.36
2022-11-26T03:23:45.400Z,5.28
2022-11-26T03:26:14.727Z,5.28
2022-11-26T03:28:44.185Z,5.31
2022-11-26T03:31:13.836Z,5.31
2022-11-26T03:33:46.192Z,5.44
2022-11-26T03:36:15.540Z,5.49
2022-11-26T03:38:44.866Z,5.45
2022-11-26T03:41:14.242Z,5.53
2022-11-26T03:43:43.868Z,5.42
2022-11-26T03:46:13.220Z,5.29
2022-11-26T03:48:42.584Z,5.23
2022-11-26T03:51:15.021Z,5.25
2022-11-26T03:53:44.385Z,5.22
2022-11-26T03:56:13.814Z,5.13
2022-11-26T03:58:43.169Z,5.07
2022-11-26T04:01:13.137Z,4.99
2022-11-26T04:03:42.875Z,4.99
2022-11-26T04:06:14.972Z,4.95
2022-11-26T04:08:44.460Z,4.94
2022-11-26T04:11:13.771Z,4.93
2022-11-26T04:13:43.225Z,4.97
2022-11-26T04:16:12.910Z,4.95
2022-11-26T04:18:42.503Z,4.93
2022-11-26T04:21:12.199Z,4.85
2022-11-26T04:23:44.155Z,4.85
2022-11-26T04:26:13.678Z,4.79
2022-11-26T04:28:43.006Z,4.73
2022-11-26T04:31:12.420Z,4.73
2022-11-26T04:33:41.799Z,4.73
2022-11-26T04:36:11.457Z,4.75
2022-11-26T04:38:41.011Z,4.70
2022-11-26T04:41:13.096Z,4.67
2022-11-26T04:43:42.492Z,4.63
2022-11-26T04:46:12.000Z,4.57
2022-11-26T04:48:41.399Z,4.59
2022-11-26T04:51:10.799Z,4.54
2022-11-26T04:53:40.214Z,4.46
2022-11-26T04:56:09.840Z,4.35
2022-11-26T04:58:41.825Z,4.28
2022-11-26T05:01:11.458Z,4.27
2022-11-26T05:03:40.768Z,4.28
2022-11-26T05:06:11.653Z,4.30
2022-11-26T05:08:41.099Z,4.20
2022-11-26T05:11:10.423Z,4.20
2022-11-26T05:13:42.480Z,4.19
2022-11-26T05:16:11.962Z,4.20
2022-11-26T05:18:41.303Z,4.19
2022-11-26T05:21:10.678Z,4.13
2022-11-26T05:23:40.067Z,4.18
2022-11-26T05:26:09.367Z,4.18
2022-11-26T05:28:38.687Z,4.22
2022-11-26T05:31:11.001Z,4.10
2022-11-26T05:33:40.499Z,4.07
2022-11-26T05:36:10.087Z,4.09
2022-11-26T05:38:39.556Z,4.32
2022-11-26T05:41:08.878Z,4.33
2022-11-26T05:43:38.175Z,4.32
2022-11-26T05:46:07.988Z,4.47
2022-11-26T05:48:40.008Z,4.65
2022-11-26T05:51:09.392Z,4.63
2022-11-26T05:53:38.795Z,4.45
2022-11-26T05:56:08.509Z,4.46
2022-11-26T05:58:37.857Z,4.37
2022-11-26T06:01:09.450Z,4.36
2022-11-26T06:03:41.520Z,4.38
2022-11-26T06:06:11.075Z,4.35
2022-11-26T06:08:40.417Z,4.39
2022-11-26T06:11:09.803Z,4.39
2022-11-26T06:13:39.076Z,4.53
2022-11-26T06:16:08.967Z,4.50
2022-11-26T06:18:41.624Z,4.46
2022-11-26T06:21:11.065Z,4.70
2022-11-26T06:23:44.284Z,4.46
2022-11-26T06:26:19.099Z,4.42
2022-11-26T06:28:48.489Z,4.35
2022-11-26T06:31:17.884Z,4.30
2022-11-26T06:33:49.830Z,4.21
2022-11-26T06:36:19.162Z,4.17
2022-11-26T06:38:48.622Z,4.11
2022-11-26T06:41:17.976Z,4.19
2022-11-26T06:43:47.370Z,4.32
2022-11-26T06:46:16.993Z,4.26
2022-11-26T06:48:46.407Z,4.26
2022-11-26T06:51:20.538Z,4.25
2022-11-26T06:53:49.955Z,4.17
2022-11-26T06:56:19.572Z,4.06
2022-11-26T06:58:49.304Z,4.08
2022-11-26T07:01:19.541Z,3.97
2022-11-26T07:03:49.219Z,4.01
2022-11-26T07:06:22.063Z,4.25
2022-11-26T07:08:51.501Z,4.32
2022-11-26T07:11:21.104Z,4.18
2022-11-26T07:13:50.602Z,4.15
2022-11-26T07:16:20.189Z,4.15
2022-11-26T07:18:50.526Z,4.13
2022-11-26T07:21:22.625Z,4.22
2022-11-26T07:23:52.256Z,4.12
2022-11-26T07:26:22.127Z,4.08
2022-11-26T07:28:51.618Z,4.10
2022-11-26T07:31:21.710Z,4.09
2022-11-26T07:33:51.191Z,4.12
2022-11-26T07:36:24.329Z,4.11
2022-11-26T07:38:55.800Z,4.08
2022-11-26T07:41:25.211Z,4.07
2022-11-26T07:43:54.849Z,4.09
2022-11-26T07:46:25.721Z,4.09
2022-11-26T07:48:55.293Z,4.12
2022-11-26T07:51:28.002Z,4.18
2022-11-26T07:53:57.753Z,4.24
2022-11-26T07:56:27.339Z,4.29
2022-11-26T07:58:56.895Z,4.30
2022-11-26T08:01:28.360Z,4.45
2022-11-26T08:03:58.033Z,4.66
2022-11-26T08:06:30.590Z,4.86
2022-11-26T08:09:02.265Z,5.00
2022-11-26T08:11:32.227Z,5.11
2022-11-26T08:14:02.411Z,5.20
2022-11-26T08:16:31.962Z,5.24
2022-11-26T08:19:02.314Z,5.24
2022-11-26T08:21:34.307Z,5.40
2022-11-26T08:24:03.800Z,5.47
2022-11-26T08:26:38.428Z,5.52
2022-11-26T08:29:12.023Z,5.54
2022-11-26T08:31:45.615Z,5.63
2022-11-26T08:34:16.452Z,5.69
2022-11-26T08:36:48.740Z,5.75
2022-11-26T08:39:18.918Z,5.81
2022-11-26T08:41:51.929Z,5.81
2022-11-26T08:44:22.071Z,5.79
2022-11-26T08:46:51.453Z,5.79
2022-11-26T08:49:20.764Z,5.77
2022-11-26T08:51:52.680Z,5.78
2022-11-26T08:54:22.106Z,5.77
2022-11-26T08:56:51.448Z,5.78
2022-11-26T08:59:23.018Z,5.93
2022-11-26T09:01:52.753Z,5.93
2022-11-26T09:04:22.124Z,5.96
2022-11-26T09:06:54.212Z,6.00
2022-11-26T09:09:23.683Z,6.08
2022-11-26T09:11:54.358Z,6.08
2022-11-26T09:14:25.056Z,6.20
2022-11-26T09:16:54.594Z,6.24
2022-11-26T09:19:24.096Z,6.31
2022-11-26T09:21:56.370Z,6.43
2022-11-26T09:24:25.890Z,6.41
2022-11-26T09:26:55.438Z,6.43
2022-11-26T09:29:25.393Z,6.48
2022-11-26T09:32:21.970Z,6.59
2022-11-26T09:34:44.289Z,6.70
2022-11-26T09:37:16.266Z,6.79
2022-11-26T09:39:45.753Z,6.83
2022-11-26T09:42:16.348Z,6.92
2022-11-26T09:44:50.035Z,6.95
2022-11-26T09:47:20.076Z,7.02
2022-11-26T09:49:56.456Z,7.16
2022-11-26T09:52:29.569Z,7.22
2022-11-26T09:55:01.717Z,7.31
2022-11-26T09:57:31.813Z,7.34
2022-11-26T10:00:01.203Z,7.37
2022-11-26T10:02:30.578Z,7.56
2022-11-26T10:04:59.934Z,7.62
2022-11-26T10:07:37.347Z,7.60
2022-11-26T10:10:08.296Z,7.63
2022-11-26T10:13:03.101Z,7.68
2022-11-26T10:15:31.249Z,7.76
2022-11-26T10:18:01.177Z,7.83
2022-11-26T10:20:45.586Z,7.94
2022-11-26T10:23:20.378Z,8.02
2022-11-26T10:25:50.397Z,8.12
2022-11-26T10:28:22.179Z,8.11
2022-11-26T10:30:53.740Z,8.20
2022-11-26T10:33:23.255Z,8.25
2022-11-26T10:35:52.557Z,8.29
2022-11-26T10:38:24.522Z,8.33
2022-11-26T10:40:54.476Z,8.31
2022-11-26T10:43:24.934Z,8.30
2022-11-26T10:45:54.980Z,8.30
2022-11-26T10:48:25.582Z,8.29
2022-11-26T10:51:02.131Z,8.35
2022-11-26T10:53:34.663Z,8.47
2022-11-26T10:56:04.408Z,8.58
2022-11-26T10:58:34.295Z,8.67
2022-11-26T11:01:04.493Z,8.78
2022-11-26T11:06:37.963Z,8.89
2022-11-26T11:09:24.259Z,8.89
2022-11-26T11:12:00.505Z,8.93
2022-11-26T11:14:30.704Z,8.86
2022-11-26T11:17:00.038Z,8.98
2022-11-26T11:19:29.424Z,9.04
2022-11-26T11:21:58.869Z,8.97
2022-11-26T11:24:31.263Z,9.12
2022-11-26T11:27:01.339Z,9.22
2022-11-26T11:29:33.265Z,9.26
2022-11-26T11:32:04.457Z,9.34
2022-11-26T11:34:35.787Z,9.27
2022-11-26T11:37:05.918Z,9.27
2022-11-26T11:39:38.100Z,9.25
2022-11-26T11:42:07.826Z,9.34
2022-11-26T11:44:39.968Z,9.38
2022-11-26T11:47:15.675Z,9.37
2022-11-26T11:49:48.488Z,9.46
2022-11-26T11:52:19.757Z,9.36
2022-11-26T11:54:56.867Z,9.46
2022-11-26T11:57:29.291Z,9.50
2022-11-26T12:00:13.533Z,9.47
2022-11-26T12:02:50.654Z,9.55
2022-11-26T12:05:32.935Z,9.59
2022-11-26T12:08:04.337Z,9.60
2022-11-26T12:10:37.300Z,9.57
2022-11-26T12:13:08.034Z,9.53
2022-11-26T12:15:38.623Z,9.51
2022-11-26T12:18:08.736Z,9.59
2022-11-26T12:20:39.558Z,9.60
2022-11-26T12:23:16.011Z,9.53
2022-11-26T12:25:50.110Z,9.52
2022-11-26T12:28:20.966Z,9.52
2022-11-26T12:30:52.526Z,9.46
2022-11-26T12:33:23.513Z,9.46
2022-11-26T12:35:53.569Z,9.52
2022-11-26T12:38:24.810Z,9.51
2022-11-26T12:41:00.249Z,9.56
2022-11-26T12:43:30.765Z,9.56
2022-11-26T12:46:01.769Z,9.43
2022-11-26T12:48:36.633Z,9.43
2022-11-26T12:51:10.658Z,9.44
2022-11-26T12:53:41.760Z,9.51
2022-11-26T12:56:15.513Z,9.45
2022-11-26T12:58:47.616Z,9.44
2022-11-26T13:01:17.172Z,9.46
2022-11-26T13:03:46.596Z,9.48
2022-11-26T13:06:18.540Z,9.45
2022-11-26T13:08:49.592Z,9.40
2022-11-26T13:11:25.607Z,9.35
2022-11-26T13:13:58.395Z,9.37
2022-11-26T13:16:29.616Z,9.38
2022-11-26T13:19:03.939Z,9.32
2022-11-26T13:21:40.325Z,9.24
2022-11-26T13:24:19.008Z,9.19
2022-11-26T13:26:55.218Z,9.19
2022-11-26T13:29:26.592Z,9.12
2022-11-26T13:32:00.116Z,9.14
2022-11-26T13:37:51.895Z,9.20
2022-11-26T13:40:33.646Z,9.19
2022-11-26T13:43:10.210Z,9.16
2022-11-26T13:45:46.091Z,9.15
2022-11-26T13:48:16.254Z,9.25
2022-11-26T13:50:46.375Z,9.21
2022-11-26T13:53:18.679Z,9.20
2022-11-26T13:55:48.615Z,9.21
2022-11-26T13:58:21.586Z,9.22
2022-11-26T14:00:51.095Z,9.24
2022-11-26T14:03:35.489Z,9.23
2022-11-26T14:06:10.874Z,9.25
2022-11-26T14:08:41.295Z,9.34
2022-11-26T14:11:11.020Z,9.35
2022-11-26T14:13:43.005Z,9.41
2022-11-26T14:16:12.772Z,9.41
2022-11-26T14:19:06.151Z,9.58
2022-11-26T14:21:35.707Z,9.65
2022-11-26T14:24:05.168Z,9.76
2022-11-26T14:26:37.714Z,9.76
2022-11-26T14:29:12.712Z,9.74
2022-11-26T14:31:43.273Z,9.65
2022-11-26T14:34:13.954Z,9.53
2022-11-26T14:36:53.330Z,9.53
2022-11-26T14:39:22.672Z,9.52
2022-11-26T14:41:59.079Z,9.49
2022-11-26T14:44:34.319Z,9.45
2022-11-26T14:47:04.226Z,9.39
2022-11-26T14:49:34.914Z,9.31
2022-11-26T14:52:04.644Z,9.32
2022-11-26T14:54:34.751Z,9.30
2022-11-26T14:57:06.185Z,9.31
2022-11-26T14:59:38.215Z,9.22
2022-11-26T15:02:20.617Z,9.20
2022-11-26T15:04:59.357Z,9.12
2022-11-26T15:07:28.998Z,9.11
2022-11-26T15:10:05.200Z,9.05
2022-11-26T15:12:34.599Z,9.01
2022-11-26T15:15:06.935Z,8.96
2022-11-26T15:17:36.571Z,8.95
2022-11-26T15:20:06.857Z,8.88
2022-11-26T15:22:37.704Z,8.81
2022-11-26T15:25:07.474Z,8.75
2022-11-26T15:27:38.698Z,8.73
2022-11-26T15:30:20.155Z,8.66
2022-11-26T15:32:49.541Z,8.58
2022-11-26T15:35:19.076Z,8.57
2022-11-26T15:37:48.507Z,8.53
2022-11-26T15:40:24.674Z,8.43
2022-11-26T15:42:55.332Z,8.48
2022-11-26T15:45:28.412Z,8.44
2022-11-26T15:47:57.907Z,8.45
2022-11-26T15:50:32.012Z,8.39
2022-11-26T15:53:02.275Z,8.34
2022-11-26T15:55:32.296Z,8.32
2022-11-26T15:58:03.849Z,8.34
2022-11-26T16:00:37.575Z,8.32
2022-11-26T16:03:07.508Z,8.25
2022-11-26T16:05:38.530Z,8.24
2022-11-26T16:08:08.367Z,8.25
2022-11-26T16:10:39.617Z,8.24
2022-11-26T16:13:23.144Z,8.19
2022-11-26T16:15:57.587Z,8.14
2022-11-26T16:18:28.280Z,8.12
2022-11-26T16:21:03.671Z,8.12
2022-11-26T16:23:33.059Z,8.10
2022-11-26T16:26:09.515Z,8.03
2022-11-26T16:28:38.962Z,8.02
2022-11-26T16:31:11.074Z,7.97
2022-11-26T16:33:40.618Z,7.97
2022-11-26T16:36:24.577Z,7.92
2022-11-26T16:38:54.214Z,7.94
2022-11-26T16:41:24.166Z,7.90
2022-11-26T16:43:53.568Z,7.89
2022-11-26T16:46:27.745Z,7.86
2022-11-26T16:48:57.288Z,7.86
2022-11-26T16:51:26.785Z,7.87
2022-11-26T16:53:56.257Z,7.84
2022-11-26T16:56:25.922Z,7.88
2022-11-26T16:58:55.398Z,7.90
2022-11-26T17:01:27.375Z,7.85
2022-11-26T17:03:56.994Z,7.78
2022-11-26T17:06:28.403Z,7.73
2022-11-26T17:08:58.376Z,7.70
2022-11-26T17:11:27.686Z,7.71
2022-11-26T17:13:57.108Z,7.68
2022-11-26T17:16:29.210Z,7.69
2022-11-26T17:18:58.650Z,7.67
2022-11-26T17:21:28.072Z,7.66
2022-11-26T17:23:57.454Z,7.63
2022-11-26T17:26:27.041Z,7.65
2022-11-26T17:28:56.537Z,7.63
2022-11-26T17:31:26.216Z,7.63
2022-11-26T17:34:01.498Z,7.65
2022-11-26T17:36:36.603Z,7.68
2022-11-26T17:39:06.716Z,7.63
2022-11-26T17:41:36.078Z,7.58
2022-11-26T17:44:05.464Z,7.50
2022-11-26T17:46:48.129Z,7.52
2022-11-26T17:49:26.944Z,7.49
2022-11-26T17:51:56.361Z,7.47
2022-11-26T17:54:25.691Z,7.45
2022-11-26T17:56:55.113Z,7.40
2022-11-26T17:59:24.732Z,7.39
2022-11-26T18:01:54.090Z,7.36
2022-11-26T18:04:23.375Z,7.36
2022-11-26T18:06:58.371Z,7.37
2022-11-26T18:09:27.779Z,7.34
2022-11-26T18:11:57.933Z,7.33
2022-11-26T18:14:27.351Z,7.27
2022-11-26T18:16:56.824Z,7.26
2022-11-26T18:19:26.394Z,7.28
2022-11-26T18:21:58.405Z,7.25
2022-11-26T18:24:27.754Z,7.19
2022-11-26T18:26:57.093Z,7.23
2022-11-26T18:29:26.657Z,7.20
2022-11-26T18:31:56.177Z,7.18
2022-11-26T18:34:25.588Z,7.16
2022-11-26T18:36:54.928Z,7.15
2022-11-26T18:39:27.045Z,7.13
2022-11-26T18:42:15.438Z,7.11
2022-11-26T18:44:45.857Z,7.16
2022-11-26T18:47:15.247Z,7.13
2022-11-26T18:49:47.605Z,7.19
2022-11-26T18:52:17.387Z,7.14
2022-11-26T18:54:49.572Z,7.11
2022-11-26T18:57:18.970Z,7.11
2022-11-26T18:59:50.475Z,7.09
2022-11-26T19:02:20.015Z,7.08
2022-11-26T19:04:49.475Z,7.06
2022-11-26T19:07:18.922Z,7.08
2022-11-26T19:09:51.230Z,7.09
2022-11-26T19:12:20.659Z,7.11
2022-11-26T19:14:49.980Z,7.02
2022-11-26T19:17:19.492Z,7.01
2022-11-26T19:19:49.214Z,6.98
2022-11-26T19:22:18.602Z,7.00
2022-11-26T19:24:48.097Z,6.97
2022-11-26T19:27:20.215Z,6.93
2022-11-26T19:29:49.645Z,6.90
2022-11-26T19:32:18.958Z,6.87
2022-11-26T19:34:48.359Z,6.87
2022-11-26T19:37:17.661Z,6.82
2022-11-26T19:39:47.008Z,6.77
2022-11-26T19:42:16.392Z,6.74
2022-11-26T19:44:48.431Z,6.69
2022-11-26T19:47:17.773Z,6.66
2022-11-26T19:49:47.104Z,6.66
2022-11-26T19:52:16.599Z,6.63
2022-11-26T19:54:46.025Z,6.63
2022-11-26T19:57:15.378Z,6.58
2022-11-26T19:59:44.734Z,6.56
2022-11-26T20:02:16.780Z,6.49
2022-11-26T20:04:46.113Z,6.47
2022-11-26T20:07:15.486Z,6.45
2022-11-26T20:09:44.884Z,6.45
2022-11-26T20:12:14.236Z,6.42
2022-11-26T20:14:43.658Z,6.44
2022-11-26T20:17:13.055Z,6.42
2022-11-26T20:19:45.071Z,6.41
2022-11-26T20:22:14.555Z,6.38
2022-11-26T20:24:43.871Z,6.39
2022-11-26T20:27:13.279Z,6.38
2022-11-26T20:29:42.631Z,6.31
2022-11-26T20:32:12.050Z,6.26
2022-11-26T20:34:41.528Z,6.26
2022-11-26T20:37:17.101Z,6.29
2022-11-26T20:39:46.599Z,6.28
2022-11-26T20:42:15.925Z,6.30
2022-11-26T20:44:45.334Z,6.20
2022-11-26T20:47:14.852Z,6.14
2022-11-26T20:49:44.730Z,6.16
2022-11-26T20:52:17.044Z,6.10
2022-11-26T20:54:49.520Z,6.08
2022-11-26T20:57:23.692Z,6.06
2022-11-26T20:59:53.167Z,6.02
2022-11-26T21:02:22.742Z,6.04
2022-11-26T21:04:52.124Z,6.01
2022-11-26T21:07:24.170Z,6.03
2022-11-26T21:09:53.573Z,6.07
2022-11-26T21:12:23.004Z,6.03
2022-11-26T21:14:52.473Z,6.01
2022-11-26T21:17:21.920Z,6.05
2022-11-26T21:19:51.399Z,6.13
2022-11-26T21:22:20.686Z,5.98
2022-11-26T21:24:52.920Z,6.00
2022-11-26T21:27:22.314Z,5.94
2022-11-26T21:29:51.659Z,5.99
2022-11-26T21:32:21.003Z,6.01
2022-11-26T21:34:50.300Z,6.06
2022-11-26T21:37:19.666Z,6.08
2022-11-26T21:39:50.496Z,6.03
2022-11-26T21:42:22.460Z,6.05
2022-11-26T21:44:51.873Z,6.02
2022-11-26T21:47:21.201Z,5.87
2022-11-26T21:49:50.594Z,5.81
2022-11-26T21:52:19.942Z,5.81
2022-11-26T21:54:49.390Z,5.81
2022-11-26T21:57:18.672Z,5.80
2022-11-26T21:59:50.674Z,5.80
2022-11-26T22:02:20.068Z,5.81
2022-11-26T22:04:49.385Z,5.93
2022-11-26T22:07:18.950Z,5.99
2022-11-26T22:09:48.408Z,5.95
2022-11-26T22:12:17.791Z,5.99
2022-11-26T22:14:47.173Z,6.08
2022-11-26T22:17:19.231Z,6.11
2022-11-26T22:19:48.859Z,6.19
2022-11-26T22:22:18.179Z,6.16
2022-11-26T22:24:47.846Z,6.16
2022-11-26T22:27:17.178Z,6.15
2022-11-26T22:29:46.554Z,6.25
2022-11-26T22:32:15.963Z,6.22
2022-11-26T22:34:47.938Z,6.17
2022-11-26T22:37:17.288Z,6.19
2022-11-26T22:39:49.888Z,6.21
2022-11-26T22:42:23.016Z,6.16
2022-11-26T22:44:52.456Z,6.22
2022-11-26T22:47:21.782Z,6.22
2022-11-26T22:49:53.768Z,6.26
2022-11-26T22:52:23.213Z,6.21
2022-11-26T22:54:52.680Z,6.24
2022-11-26T22:57:25.297Z,6.29
2022-11-26T22:59:55.539Z,6.32
2022-11-26T23:02:24.884Z,6.33
2022-11-26T23:04:57.347Z,6.25
2022-11-26T23:07:26.848Z,6.26
2022-11-26T23:09:56.167Z,6.19
2022-11-26T23:12:25.577Z,6.15
2022-11-26T23:14:55.425Z,6.23
2022-11-26T23:17:24.824Z,6.25
2022-11-26T23:19:56.811Z,6.22
2022-11-26T23:22:26.507Z,6.20
2022-11-26T23:24:55.808Z,6.21
2022-11-26T23:27:25.195Z,6.15
2022-11-26T23:29:54.510Z,6.14
2022-11-26T23:32:27.102Z,6.15
2022-11-26T23:35:01.490Z,6.10
2022-11-26T23:37:30.876Z,6.09
2022-11-26T23:40:00.256Z,6.08
2022-11-26T23:42:29.719Z,6.04
2022-11-26T23:44:59.053Z,6.05
2022-11-26T23:47:28.540Z,6.07
2022-11-26T23:50:00.869Z,6.06
2022-11-26T23:52:33.244Z,5.91
2022-11-26T23:55:02.674Z,5.83
2022-11-26T23:57:32.032Z,5.82
